sensor_id;sensor_type;location;lat;lon;timestamp;P1;durP1;ratioP1;P2;durP2;ratioP2
6436;SDS011;3251;53.550;9.918;2023-12-28T00:01:14;8.73;;;5.70;;
6436;SDS011;3251;53.550;9.918;2023-12-28T00:03:41;14.33;;;7.30;;
6436;SDS011;3251;53.550;9.918;2023-12-28T00:06:07;9.57;;;7.30;;
6436;SDS011;3251;53.550;9.918;2023-12-28T00:08:33;14.00;;;7.53;;
6436;SDS011;3251;53.550;9.918;2023-12-28T00:10:59;9.63;;;4.60;;
6436;SDS011;3251;53.550;9.918;2023-12-28T00:13:25;3.30;;;3.10;;
6436;SDS011;3251;53.550;9.918;2023-12-28T00:15:51;33.17;;;16.33;;
6436;SDS011;3251;53.550;9.918;2023-12-28T00:18:17;8.80;;;2.77;;
6436;SDS011;3251;53.550;9.918;2023-12-28T00:20:43;5.37;;;2.17;;
6436;SDS011;3251;53.550;9.918;2023-12-28T00:23:10;3.87;;;2.50;;
6436;SDS011;3251;53.550;9.918;2023-12-28T00:25:36;7.60;;;2.30;;
6436;SDS011;3251;53.550;9.918;2023-12-28T00:28:02;2.33;;;2.13;;
6436;SDS011;3251;53.550;9.918;2023-12-28T00:30:28;2.20;;;2.10;;
6436;SDS011;3251;53.550;9.918;2023-12-28T00:32:54;6.60;;;2.13;;
6436;SDS011;3251;53.550;9.918;2023-12-28T00:35:20;4.30;;;2.27;;
6436;SDS011;3251;53.550;9.918;2023-12-28T00:37:47;1.67;;;1.57;;
6436;SDS011;3251;53.550;9.918;2023-12-28T00:40:13;9.10;;;3.27;;
6436;SDS011;3251;53.550;9.918;2023-12-28T00:42:40;3.00;;;2.63;;
6436;SDS011;3251;53.550;9.918;2023-12-28T00:45:07;3.10;;;2.30;;
6436;SDS011;3251;53.550;9.918;2023-12-28T00:47:35;8.73;;;2.00;;
6436;SDS011;3251;53.550;9.918;2023-12-28T00:50:01;4.57;;;1.90;;
6436;SDS011;3251;53.550;9.918;2023-12-28T00:52:29;2.20;;;2.00;;
6436;SDS011;3251;53.550;9.918;2023-12-28T00:54:55;12.90;;;2.33;;
6436;SDS011;3251;53.550;9.918;2023-12-28T00:57:21;5.83;;;2.33;;
6436;SDS011;3251;53.550;9.918;2023-12-28T00:59:47;8.07;;;2.63;;
6436;SDS011;3251;53.550;9.918;2023-12-28T01:02:13;5.00;;;1.67;;
6436;SDS011;3251;53.550;9.918;2023-12-28T01:04:39;1.87;;;1.77;;
6436;SDS011;3251;53.550;9.918;2023-12-28T01:07:05;5.00;;;1.87;;
6436;SDS011;3251;53.550;9.918;2023-12-28T01:09:32;7.23;;;2.53;;
6436;SDS011;3251;53.550;9.918;2023-12-28T01:11:58;2.10;;;2.00;;
6436;SDS011;3251;53.550;9.918;2023-12-28T01:14:24;4.63;;;2.40;;
6436;SDS011;3251;53.550;9.918;2023-12-28T01:16:50;3.33;;;2.00;;
6436;SDS011;3251;53.550;9.918;2023-12-28T01:19:17;2.30;;;2.10;;
6436;SDS011;3251;53.550;9.918;2023-12-28T01:21:43;1.77;;;1.67;;
6436;SDS011;3251;53.550;9.918;2023-12-28T01:24:09;7.13;;;2.27;;
6436;SDS011;3251;53.550;9.918;2023-12-28T01:26:35;1.80;;;1.70;;
6436;SDS011;3251;53.550;9.918;2023-12-28T01:29:01;3.53;;;2.37;;
6436;SDS011;3251;53.550;9.918;2023-12-28T01:31:29;1.93;;;1.83;;
6436;SDS011;3251;53.550;9.918;2023-12-28T01:33:55;3.93;;;2.57;;
6436;SDS011;3251;53.550;9.918;2023-12-28T01:36:22;1.80;;;1.70;;
6436;SDS011;3251;53.550;9.918;2023-12-28T01:38:48;3.63;;;2.60;;
6436;SDS011;3251;53.550;9.918;2023-12-28T01:41:14;3.57;;;2.10;;
6436;SDS011;3251;53.550;9.918;2023-12-28T01:43:41;8.37;;;2.80;;
6436;SDS011;3251;53.550;9.918;2023-12-28T01:46:08;5.27;;;2.13;;
6436;SDS011;3251;53.550;9.918;2023-12-28T01:48:36;3.20;;;2.37;;
6436;SDS011;3251;53.550;9.918;2023-12-28T01:51:02;8.00;;;2.60;;
6436;SDS011;3251;53.550;9.918;2023-12-28T01:53:29;9.80;;;2.30;;
6436;SDS011;3251;53.550;9.918;2023-12-28T01:55:55;2.00;;;1.90;;
6436;SDS011;3251;53.550;9.918;2023-12-28T01:58:22;5.43;;;1.83;;
6436;SDS011;3251;53.550;9.918;2023-12-28T02:00:49;3.17;;;2.97;;
6436;SDS011;3251;53.550;9.918;2023-12-28T02:03:15;3.37;;;3.07;;
6436;SDS011;3251;53.550;9.918;2023-12-28T02:05:41;5.70;;;2.80;;
6436;SDS011;3251;53.550;9.918;2023-12-28T02:08:07;4.43;;;2.80;;
6436;SDS011;3251;53.550;9.918;2023-12-28T02:10:33;3.07;;;2.67;;
6436;SDS011;3251;53.550;9.918;2023-12-28T02:13:00;4.07;;;2.70;;
6436;SDS011;3251;53.550;9.918;2023-12-28T02:15:26;2.63;;;2.43;;
6436;SDS011;3251;53.550;9.918;2023-12-28T02:17:55;4.50;;;2.10;;
6436;SDS011;3251;53.550;9.918;2023-12-28T02:20:21;2.17;;;2.07;;
6436;SDS011;3251;53.550;9.918;2023-12-28T02:22:49;3.30;;;2.03;;
6436;SDS011;3251;53.550;9.918;2023-12-28T02:25:15;4.60;;;2.77;;
6436;SDS011;3251;53.550;9.918;2023-12-28T02:27:45;3.60;;;2.93;;
6436;SDS011;3251;53.550;9.918;2023-12-28T02:30:12;3.17;;;2.63;;
6436;SDS011;3251;53.550;9.918;2023-12-28T02:35:08;3.10;;;2.30;;
6436;SDS011;3251;53.550;9.918;2023-12-28T02:37:36;2.53;;;2.13;;
6436;SDS011;3251;53.550;9.918;2023-12-28T02:40:03;6.20;;;3.00;;
6436;SDS011;3251;53.550;9.918;2023-12-28T02:42:29;5.67;;;2.67;;
6436;SDS011;3251;53.550;9.918;2023-12-28T02:44:55;4.50;;;2.77;;
6436;SDS011;3251;53.550;9.918;2023-12-28T02:47:21;7.77;;;2.50;;
6436;SDS011;3251;53.550;9.918;2023-12-28T02:49:47;7.53;;;2.23;;
6436;SDS011;3251;53.550;9.918;2023-12-28T02:52:13;7.80;;;3.67;;
6436;SDS011;3251;53.550;9.918;2023-12-28T02:54:40;6.10;;;3.50;;
6436;SDS011;3251;53.550;9.918;2023-12-28T02:57:06;8.30;;;2.93;;
6436;SDS011;3251;53.550;9.918;2023-12-28T02:59:32;5.27;;;2.67;;
6436;SDS011;3251;53.550;9.918;2023-12-28T03:01:58;3.30;;;3.10;;
6436;SDS011;3251;53.550;9.918;2023-12-28T03:04:24;5.63;;;3.13;;
6436;SDS011;3251;53.550;9.918;2023-12-28T03:06:51;11.97;;;3.30;;
6436;SDS011;3251;53.550;9.918;2023-12-28T03:09:17;2.30;;;2.13;;
6436;SDS011;3251;53.550;9.918;2023-12-28T03:11:43;5.73;;;2.77;;
6436;SDS011;3251;53.550;9.918;2023-12-28T03:14:09;5.30;;;2.77;;
6436;SDS011;3251;53.550;9.918;2023-12-28T03:16:36;2.97;;;2.77;;
6436;SDS011;3251;53.550;9.918;2023-12-28T03:19:02;2.90;;;2.70;;
6436;SDS011;3251;53.550;9.918;2023-12-28T03:21:28;6.80;;;3.17;;
6436;SDS011;3251;53.550;9.918;2023-12-28T03:23:54;4.10;;;3.53;;
6436;SDS011;3251;53.550;9.918;2023-12-28T03:26:20;4.70;;;2.60;;
6436;SDS011;3251;53.550;9.918;2023-12-28T03:28:46;2.67;;;2.20;;
6436;SDS011;3251;53.550;9.918;2023-12-28T03:31:13;6.57;;;3.03;;
6436;SDS011;3251;53.550;9.918;2023-12-28T03:33:39;5.50;;;3.50;;
6436;SDS011;3251;53.550;9.918;2023-12-28T03:36:06;3.90;;;3.10;;
6436;SDS011;3251;53.550;9.918;2023-12-28T03:38:32;4.13;;;2.70;;
6436;SDS011;3251;53.550;9.918;2023-12-28T03:40:58;2.70;;;2.47;;
6436;SDS011;3251;53.550;9.918;2023-12-28T03:43:26;6.00;;;3.10;;
6436;SDS011;3251;53.550;9.918;2023-12-28T03:45:52;5.20;;;3.50;;
6436;SDS011;3251;53.550;9.918;2023-12-28T03:48:18;6.33;;;2.80;;
6436;SDS011;3251;53.550;9.918;2023-12-28T03:50:44;5.03;;;3.00;;
6436;SDS011;3251;53.550;9.918;2023-12-28T03:53:10;6.90;;;4.27;;
6436;SDS011;3251;53.550;9.918;2023-12-28T03:55:36;9.73;;;2.93;;
6436;SDS011;3251;53.550;9.918;2023-12-28T03:58:02;4.47;;;3.33;;
6436;SDS011;3251;53.550;9.918;2023-12-28T04:00:28;5.67;;;3.60;;
6436;SDS011;3251;53.550;9.918;2023-12-28T04:02:54;11.13;;;2.53;;
6436;SDS011;3251;53.550;9.918;2023-12-28T04:05:23;5.30;;;2.93;;
6436;SDS011;3251;53.550;9.918;2023-12-28T04:07:49;7.43;;;3.57;;
6436;SDS011;3251;53.550;9.918;2023-12-28T04:10:27;3.57;;;2.90;;
6436;SDS011;3251;53.550;9.918;2023-12-28T04:12:55;10.63;;;3.00;;
6436;SDS011;3251;53.550;9.918;2023-12-28T04:15:23;2.90;;;2.43;;
6436;SDS011;3251;53.550;9.918;2023-12-28T04:17:49;14.23;;;2.63;;
6436;SDS011;3251;53.550;9.918;2023-12-28T04:20:15;3.27;;;2.97;;
6436;SDS011;3251;53.550;9.918;2023-12-28T04:22:41;6.90;;;3.17;;
6436;SDS011;3251;53.550;9.918;2023-12-28T04:25:08;3.67;;;2.40;;
6436;SDS011;3251;53.550;9.918;2023-12-28T04:27:35;3.00;;;2.80;;
6436;SDS011;3251;53.550;9.918;2023-12-28T04:30:02;7.17;;;3.00;;
6436;SDS011;3251;53.550;9.918;2023-12-28T04:32:30;6.07;;;3.30;;
6436;SDS011;3251;53.550;9.918;2023-12-28T04:34:57;4.23;;;2.47;;
6436;SDS011;3251;53.550;9.918;2023-12-28T04:37:23;3.07;;;2.77;;
6436;SDS011;3251;53.550;9.918;2023-12-28T04:39:51;3.03;;;2.40;;
6436;SDS011;3251;53.550;9.918;2023-12-28T04:42:18;2.83;;;2.60;;
6436;SDS011;3251;53.550;9.918;2023-12-28T04:44:44;5.30;;;3.20;;
6436;SDS011;3251;53.550;9.918;2023-12-28T04:47:10;5.33;;;2.90;;
6436;SDS011;3251;53.550;9.918;2023-12-28T04:49:36;3.67;;;3.27;;
6436;SDS011;3251;53.550;9.918;2023-12-28T04:52:02;3.60;;;2.67;;
6436;SDS011;3251;53.550;9.918;2023-12-28T04:54:29;4.37;;;2.87;;
6436;SDS011;3251;53.550;9.918;2023-12-28T04:56:55;4.07;;;2.70;;
6436;SDS011;3251;53.550;9.918;2023-12-28T04:59:21;10.00;;;3.00;;
6436;SDS011;3251;53.550;9.918;2023-12-28T05:01:47;5.20;;;3.07;;
6436;SDS011;3251;53.550;9.918;2023-12-28T05:04:13;3.03;;;2.83;;
6436;SDS011;3251;53.550;9.918;2023-12-28T05:06:40;4.33;;;3.07;;
6436;SDS011;3251;53.550;9.918;2023-12-28T05:09:06;7.73;;;3.20;;
6436;SDS011;3251;53.550;9.918;2023-12-28T05:11:32;3.23;;;3.03;;
6436;SDS011;3251;53.550;9.918;2023-12-28T05:13:58;2.90;;;2.40;;
6436;SDS011;3251;53.550;9.918;2023-12-28T05:16:24;2.83;;;2.43;;
6436;SDS011;3251;53.550;9.918;2023-12-28T05:18:50;5.20;;;3.33;;
6436;SDS011;3251;53.550;9.918;2023-12-28T05:21:16;4.17;;;3.00;;
6436;SDS011;3251;53.550;9.918;2023-12-28T05:23:42;10.73;;;4.07;;
6436;SDS011;3251;53.550;9.918;2023-12-28T05:26:08;3.17;;;2.87;;
6436;SDS011;3251;53.550;9.918;2023-12-28T05:28:34;5.60;;;2.80;;
6436;SDS011;3251;53.550;9.918;2023-12-28T05:31:00;7.63;;;3.70;;
6436;SDS011;3251;53.550;9.918;2023-12-28T05:33:27;7.73;;;3.60;;
6436;SDS011;3251;53.550;9.918;2023-12-28T05:35:53;12.27;;;4.00;;
6436;SDS011;3251;53.550;9.918;2023-12-28T05:38:19;3.53;;;2.70;;
6436;SDS011;3251;53.550;9.918;2023-12-28T05:40:45;8.13;;;3.17;;
6436;SDS011;3251;53.550;9.918;2023-12-28T05:43:11;3.10;;;2.90;;
6436;SDS011;3251;53.550;9.918;2023-12-28T05:45:37;2.70;;;2.50;;
6436;SDS011;3251;53.550;9.918;2023-12-28T05:48:03;4.47;;;2.80;;
6436;SDS011;3251;53.550;9.918;2023-12-28T05:50:29;7.70;;;2.90;;
6436;SDS011;3251;53.550;9.918;2023-12-28T05:52:56;6.97;;;3.03;;
6436;SDS011;3251;53.550;9.918;2023-12-28T05:55:22;6.07;;;3.10;;
6436;SDS011;3251;53.550;9.918;2023-12-28T05:57:48;3.90;;;3.60;;
6436;SDS011;3251;53.550;9.918;2023-12-28T06:00:14;8.93;;;2.70;;
6436;SDS011;3251;53.550;9.918;2023-12-28T06:02:41;3.30;;;3.00;;
6436;SDS011;3251;53.550;9.918;2023-12-28T06:05:07;2.60;;;2.40;;
6436;SDS011;3251;53.550;9.918;2023-12-28T06:07:33;6.83;;;3.77;;
6436;SDS011;3251;53.550;9.918;2023-12-28T06:09:59;3.33;;;3.13;;
6436;SDS011;3251;53.550;9.918;2023-12-28T06:12:25;6.40;;;3.57;;
6436;SDS011;3251;53.550;9.918;2023-12-28T06:14:51;4.03;;;2.40;;
6436;SDS011;3251;53.550;9.918;2023-12-28T06:17:17;11.10;;;4.20;;
6436;SDS011;3251;53.550;9.918;2023-12-28T06:19:44;5.87;;;4.60;;
6436;SDS011;3251;53.550;9.918;2023-12-28T06:22:10;8.47;;;3.23;;
6436;SDS011;3251;53.550;9.918;2023-12-28T06:24:39;7.57;;;3.37;;
6436;SDS011;3251;53.550;9.918;2023-12-28T06:27:05;4.37;;;2.80;;
6436;SDS011;3251;53.550;9.918;2023-12-28T06:29:31;4.83;;;2.50;;
6436;SDS011;3251;53.550;9.918;2023-12-28T06:31:58;3.13;;;2.83;;
6436;SDS011;3251;53.550;9.918;2023-12-28T06:34:24;7.60;;;3.73;;
6436;SDS011;3251;53.550;9.918;2023-12-28T06:36:50;10.33;;;3.07;;
6436;SDS011;3251;53.550;9.918;2023-12-28T06:39:16;6.63;;;3.17;;
6436;SDS011;3251;53.550;9.918;2023-12-28T06:41:46;7.83;;;3.10;;
6436;SDS011;3251;53.550;9.918;2023-12-28T06:44:13;3.73;;;3.33;;
6436;SDS011;3251;53.550;9.918;2023-12-28T06:46:40;8.93;;;3.70;;
6436;SDS011;3251;53.550;9.918;2023-12-28T06:49:06;10.53;;;4.63;;
6436;SDS011;3251;53.550;9.918;2023-12-28T06:51:32;9.13;;;2.80;;
6436;SDS011;3251;53.550;9.918;2023-12-28T06:53:58;7.77;;;2.90;;
6436;SDS011;3251;53.550;9.918;2023-12-28T06:56:25;13.43;;;3.17;;
6436;SDS011;3251;53.550;9.918;2023-12-28T06:58:51;8.77;;;2.50;;
6436;SDS011;3251;53.550;9.918;2023-12-28T07:01:17;3.17;;;2.20;;
6436;SDS011;3251;53.550;9.918;2023-12-28T07:03:43;3.23;;;3.00;;
6436;SDS011;3251;53.550;9.918;2023-12-28T07:06:09;3.40;;;3.10;;
6436;SDS011;3251;53.550;9.918;2023-12-28T07:08:35;7.13;;;2.77;;
6436;SDS011;3251;53.550;9.918;2023-12-28T07:11:02;12.33;;;3.10;;
6436;SDS011;3251;53.550;9.918;2023-12-28T07:13:28;9.20;;;2.80;;
6436;SDS011;3251;53.550;9.918;2023-12-28T07:15:54;5.53;;;2.80;;
6436;SDS011;3251;53.550;9.918;2023-12-28T07:18:21;9.53;;;3.33;;
6436;SDS011;3251;53.550;9.918;2023-12-28T07:20:47;3.87;;;2.30;;
6436;SDS011;3251;53.550;9.918;2023-12-28T07:23:13;7.00;;;2.07;;
6436;SDS011;3251;53.550;9.918;2023-12-28T07:25:40;5.80;;;2.53;;
6436;SDS011;3251;53.550;9.918;2023-12-28T07:28:07;2.27;;;1.60;;
6436;SDS011;3251;53.550;9.918;2023-12-28T07:30:33;6.30;;;2.40;;
6436;SDS011;3251;53.550;9.918;2023-12-28T07:32:59;9.70;;;2.93;;
6436;SDS011;3251;53.550;9.918;2023-12-28T07:35:25;6.83;;;2.83;;
6436;SDS011;3251;53.550;9.918;2023-12-28T07:37:51;5.97;;;2.63;;
6436;SDS011;3251;53.550;9.918;2023-12-28T07:40:18;6.40;;;2.23;;
6436;SDS011;3251;53.550;9.918;2023-12-28T07:42:44;9.77;;;2.50;;
6436;SDS011;3251;53.550;9.918;2023-12-28T07:45:10;2.77;;;2.50;;
6436;SDS011;3251;53.550;9.918;2023-12-28T07:47:36;15.07;;;2.47;;
6436;SDS011;3251;53.550;9.918;2023-12-28T07:50:02;2.70;;;1.50;;
6436;SDS011;3251;53.550;9.918;2023-12-28T07:52:28;6.73;;;3.13;;
6436;SDS011;3251;53.550;9.918;2023-12-28T07:54:54;12.03;;;1.90;;
6436;SDS011;3251;53.550;9.918;2023-12-28T07:57:21;7.13;;;2.03;;
6436;SDS011;3251;53.550;9.918;2023-12-28T07:59:47;5.17;;;2.00;;
6436;SDS011;3251;53.550;9.918;2023-12-28T08:02:13;5.23;;;2.20;;
6436;SDS011;3251;53.550;9.918;2023-12-28T08:04:39;13.23;;;3.50;;
6436;SDS011;3251;53.550;9.918;2023-12-28T08:07:05;4.33;;;1.73;;
6436;SDS011;3251;53.550;9.918;2023-12-28T08:09:32;10.43;;;2.63;;
6436;SDS011;3251;53.550;9.918;2023-12-28T08:11:58;8.20;;;2.00;;
6436;SDS011;3251;53.550;9.918;2023-12-28T08:14:24;10.97;;;3.00;;
6436;SDS011;3251;53.550;9.918;2023-12-28T08:16:50;5.87;;;2.97;;
6436;SDS011;3251;53.550;9.918;2023-12-28T08:19:17;12.33;;;2.57;;
6436;SDS011;3251;53.550;9.918;2023-12-28T08:21:43;6.23;;;2.20;;
6436;SDS011;3251;53.550;9.918;2023-12-28T08:24:10;15.87;;;2.30;;
6436;SDS011;3251;53.550;9.918;2023-12-28T08:26:36;5.27;;;2.10;;
6436;SDS011;3251;53.550;9.918;2023-12-28T08:29:02;14.03;;;1.80;;
6436;SDS011;3251;53.550;9.918;2023-12-28T08:31:28;9.70;;;2.03;;
6436;SDS011;3251;53.550;9.918;2023-12-28T08:33:54;5.90;;;1.77;;
6436;SDS011;3251;53.550;9.918;2023-12-28T08:36:21;7.70;;;2.20;;
6436;SDS011;3251;53.550;9.918;2023-12-28T08:38:47;7.77;;;2.20;;
6436;SDS011;3251;53.550;9.918;2023-12-28T08:41:20;6.30;;;1.70;;
6436;SDS011;3251;53.550;9.918;2023-12-28T08:43:47;17.90;;;4.00;;
6436;SDS011;3251;53.550;9.918;2023-12-28T08:46:13;7.20;;;2.00;;
6436;SDS011;3251;53.550;9.918;2023-12-28T08:48:40;8.80;;;2.43;;
6436;SDS011;3251;53.550;9.918;2023-12-28T08:51:06;3.40;;;1.20;;
6436;SDS011;3251;53.550;9.918;2023-12-28T08:53:32;16.73;;;2.73;;
6436;SDS011;3251;53.550;9.918;2023-12-28T08:55:58;13.17;;;2.10;;
6436;SDS011;3251;53.550;9.918;2023-12-28T08:58:25;18.00;;;2.70;;
6436;SDS011;3251;53.550;9.918;2023-12-28T09:00:51;5.80;;;1.80;;
6436;SDS011;3251;53.550;9.918;2023-12-28T09:03:17;10.70;;;2.63;;
6436;SDS011;3251;53.550;9.918;2023-12-28T09:05:43;7.47;;;2.90;;
6436;SDS011;3251;53.550;9.918;2023-12-28T09:08:09;3.87;;;1.63;;
6436;SDS011;3251;53.550;9.918;2023-12-28T09:10:35;7.50;;;2.03;;
6436;SDS011;3251;53.550;9.918;2023-12-28T09:13:03;10.50;;;1.90;;
6436;SDS011;3251;53.550;9.918;2023-12-28T09:15:31;10.73;;;3.23;;
6436;SDS011;3251;53.550;9.918;2023-12-28T09:17:57;8.90;;;3.10;;
6436;SDS011;3251;53.550;9.918;2023-12-28T09:20:23;14.60;;;2.43;;
6436;SDS011;3251;53.550;9.918;2023-12-28T09:22:49;8.07;;;2.10;;
6436;SDS011;3251;53.550;9.918;2023-12-28T09:25:18;10.57;;;2.47;;
6436;SDS011;3251;53.550;9.918;2023-12-28T09:27:44;12.03;;;2.37;;
6436;SDS011;3251;53.550;9.918;2023-12-28T09:30:11;7.50;;;2.17;;
6436;SDS011;3251;53.550;9.918;2023-12-28T09:32:37;7.40;;;1.40;;
6436;SDS011;3251;53.550;9.918;2023-12-28T09:35:03;3.87;;;2.17;;
6436;SDS011;3251;53.550;9.918;2023-12-28T09:37:29;9.47;;;2.63;;
6436;SDS011;3251;53.550;9.918;2023-12-28T09:39:55;17.00;;;3.30;;
6436;SDS011;3251;53.550;9.918;2023-12-28T09:42:25;7.03;;;1.97;;
6436;SDS011;3251;53.550;9.918;2023-12-28T09:44:54;12.70;;;2.33;;
6436;SDS011;3251;53.550;9.918;2023-12-28T09:47:20;14.73;;;1.93;;
6436;SDS011;3251;53.550;9.918;2023-12-28T09:49:47;18.27;;;3.20;;
6436;SDS011;3251;53.550;9.918;2023-12-28T09:52:13;13.33;;;2.20;;
6436;SDS011;3251;53.550;9.918;2023-12-28T09:54:40;4.67;;;1.47;;
6436;SDS011;3251;53.550;9.918;2023-12-28T09:57:06;13.10;;;3.23;;
6436;SDS011;3251;53.550;9.918;2023-12-28T09:59:32;19.00;;;3.53;;
6436;SDS011;3251;53.550;9.918;2023-12-28T10:02:00;8.77;;;2.10;;
6436;SDS011;3251;53.550;9.918;2023-12-28T10:04:28;7.83;;;2.33;;
6436;SDS011;3251;53.550;9.918;2023-12-28T10:06:54;10.37;;;3.17;;
6436;SDS011;3251;53.550;9.918;2023-12-28T10:09:23;4.90;;;1.40;;
6436;SDS011;3251;53.550;9.918;2023-12-28T10:11:52;11.10;;;2.40;;
6436;SDS011;3251;53.550;9.918;2023-12-28T10:14:19;16.03;;;2.43;;
6436;SDS011;3251;53.550;9.918;2023-12-28T10:16:45;12.70;;;2.37;;
6436;SDS011;3251;53.550;9.918;2023-12-28T10:19:12;21.43;;;2.40;;
6436;SDS011;3251;53.550;9.918;2023-12-28T10:21:41;10.70;;;2.50;;
6436;SDS011;3251;53.550;9.918;2023-12-28T10:24:09;14.23;;;3.43;;
6436;SDS011;3251;53.550;9.918;2023-12-28T10:26:36;6.03;;;1.67;;
6436;SDS011;3251;53.550;9.918;2023-12-28T10:29:02;23.30;;;2.83;;
6436;SDS011;3251;53.550;9.918;2023-12-28T10:31:28;15.07;;;2.37;;
6436;SDS011;3251;53.550;9.918;2023-12-28T10:33:57;12.80;;;1.70;;
6436;SDS011;3251;53.550;9.918;2023-12-28T10:36:27;9.23;;;2.50;;
6436;SDS011;3251;53.550;9.918;2023-12-28T10:38:54;9.23;;;2.10;;
6436;SDS011;3251;53.550;9.918;2023-12-28T10:41:20;13.57;;;2.10;;
6436;SDS011;3251;53.550;9.918;2023-12-28T10:46:30;9.50;;;2.70;;
6436;SDS011;3251;53.550;9.918;2023-12-28T10:49:00;11.40;;;2.33;;
6436;SDS011;3251;53.550;9.918;2023-12-28T10:51:30;16.00;;;2.90;;
6436;SDS011;3251;53.550;9.918;2023-12-28T11:01:31;13.00;;;3.20;;
6436;SDS011;3251;53.550;9.918;2023-12-28T11:04:02;15.87;;;2.30;;
6436;SDS011;3251;53.550;9.918;2023-12-28T11:06:31;12.90;;;2.10;;
6436;SDS011;3251;53.550;9.918;2023-12-28T11:08:58;16.20;;;3.10;;
6436;SDS011;3251;53.550;9.918;2023-12-28T11:11:25;7.70;;;1.90;;
6436;SDS011;3251;53.550;9.918;2023-12-28T11:13:52;10.27;;;2.63;;
6436;SDS011;3251;53.550;9.918;2023-12-28T11:16:21;25.83;;;2.53;;
6436;SDS011;3251;53.550;9.918;2023-12-28T11:18:47;22.70;;;3.30;;
6436;SDS011;3251;53.550;9.918;2023-12-28T11:21:14;11.07;;;2.33;;
6436;SDS011;3251;53.550;9.918;2023-12-28T11:23:41;12.03;;;1.80;;
6436;SDS011;3251;53.550;9.918;2023-12-28T11:26:17;18.07;;;3.50;;
6436;SDS011;3251;53.550;9.918;2023-12-28T11:28:44;12.87;;;3.00;;
6436;SDS011;3251;53.550;9.918;2023-12-28T11:31:10;16.07;;;3.90;;
6436;SDS011;3251;53.550;9.918;2023-12-28T11:33:43;13.47;;;3.23;;
6436;SDS011;3251;53.550;9.918;2023-12-28T11:36:09;8.73;;;2.07;;
6436;SDS011;3251;53.550;9.918;2023-12-28T11:38:36;25.77;;;8.17;;
6436;SDS011;3251;53.550;9.918;2023-12-28T11:41:03;18.97;;;4.03;;
6436;SDS011;3251;53.550;9.918;2023-12-28T11:43:34;17.23;;;2.90;;
6436;SDS011;3251;53.550;9.918;2023-12-28T11:46:00;17.37;;;5.00;;
6436;SDS011;3251;53.550;9.918;2023-12-28T11:48:30;11.60;;;3.07;;
6436;SDS011;3251;53.550;9.918;2023-12-28T11:50:57;17.60;;;3.77;;
6436;SDS011;3251;53.550;9.918;2023-12-28T11:53:23;12.13;;;2.53;;
6436;SDS011;3251;53.550;9.918;2023-12-28T11:55:50;26.47;;;7.00;;
6436;SDS011;3251;53.550;9.918;2023-12-28T11:58:17;34.63;;;12.27;;
6436;SDS011;3251;53.550;9.918;2023-12-28T12:00:43;27.03;;;5.67;;
6436;SDS011;3251;53.550;9.918;2023-12-28T12:03:10;10.40;;;3.33;;
6436;SDS011;3251;53.550;9.918;2023-12-28T12:05:36;23.17;;;4.57;;
6436;SDS011;3251;53.550;9.918;2023-12-28T12:08:03;24.97;;;5.30;;
6436;SDS011;3251;53.550;9.918;2023-12-28T12:10:29;28.97;;;2.60;;
6436;SDS011;3251;53.550;9.918;2023-12-28T12:12:57;21.60;;;4.43;;
6436;SDS011;3251;53.550;9.918;2023-12-28T12:15:23;16.20;;;5.30;;
6436;SDS011;3251;53.550;9.918;2023-12-28T12:17:49;23.93;;;5.77;;
6436;SDS011;3251;53.550;9.918;2023-12-28T12:20:15;17.60;;;4.57;;
6436;SDS011;3251;53.550;9.918;2023-12-28T12:22:42;20.47;;;4.03;;
6436;SDS011;3251;53.550;9.918;2023-12-28T12:25:08;22.87;;;3.93;;
6436;SDS011;3251;53.550;9.918;2023-12-28T12:27:36;11.83;;;2.47;;
6436;SDS011;3251;53.550;9.918;2023-12-28T12:30:03;12.03;;;2.50;;
6436;SDS011;3251;53.550;9.918;2023-12-28T12:32:30;15.40;;;4.70;;
6436;SDS011;3251;53.550;9.918;2023-12-28T12:34:57;27.93;;;4.57;;
6436;SDS011;3251;53.550;9.918;2023-12-28T12:37:23;15.53;;;2.93;;
6436;SDS011;3251;53.550;9.918;2023-12-28T12:39:49;18.37;;;3.10;;
6436;SDS011;3251;53.550;9.918;2023-12-28T12:42:16;25.57;;;3.33;;
6436;SDS011;3251;53.550;9.918;2023-12-28T12:44:42;17.80;;;2.60;;
6436;SDS011;3251;53.550;9.918;2023-12-28T12:47:08;12.27;;;2.90;;
6436;SDS011;3251;53.550;9.918;2023-12-28T12:49:34;15.07;;;2.97;;
6436;SDS011;3251;53.550;9.918;2023-12-28T12:52:01;14.77;;;2.83;;
6436;SDS011;3251;53.550;9.918;2023-12-28T12:54:27;12.87;;;2.50;;
6436;SDS011;3251;53.550;9.918;2023-12-28T12:56:53;22.93;;;3.47;;
6436;SDS011;3251;53.550;9.918;2023-12-28T12:59:22;18.33;;;3.10;;
6436;SDS011;3251;53.550;9.918;2023-12-28T13:01:48;13.17;;;3.57;;
6436;SDS011;3251;53.550;9.918;2023-12-28T13:04:16;24.23;;;4.17;;
6436;SDS011;3251;53.550;9.918;2023-12-28T13:06:42;28.30;;;3.30;;
6436;SDS011;3251;53.550;9.918;2023-12-28T13:09:08;22.60;;;4.77;;
6436;SDS011;3251;53.550;9.918;2023-12-28T13:11:37;16.83;;;5.10;;
6436;SDS011;3251;53.550;9.918;2023-12-28T13:14:03;30.80;;;10.30;;
6436;SDS011;3251;53.550;9.918;2023-12-28T13:16:29;21.70;;;4.67;;
6436;SDS011;3251;53.550;9.918;2023-12-28T13:18:56;19.63;;;4.00;;
6436;SDS011;3251;53.550;9.918;2023-12-28T13:21:22;8.20;;;2.73;;
6436;SDS011;3251;53.550;9.918;2023-12-28T13:23:49;10.73;;;2.97;;
6436;SDS011;3251;53.550;9.918;2023-12-28T13:26:15;14.67;;;3.10;;
6436;SDS011;3251;53.550;9.918;2023-12-28T13:28:41;13.10;;;3.87;;
6436;SDS011;3251;53.550;9.918;2023-12-28T13:31:07;20.40;;;3.20;;
6436;SDS011;3251;53.550;9.918;2023-12-28T13:33:33;23.13;;;2.80;;
6436;SDS011;3251;53.550;9.918;2023-12-28T13:36:00;24.67;;;2.40;;
6436;SDS011;3251;53.550;9.918;2023-12-28T13:38:27;15.10;;;2.60;;
6436;SDS011;3251;53.550;9.918;2023-12-28T13:40:53;23.53;;;2.80;;
6436;SDS011;3251;53.550;9.918;2023-12-28T13:43:20;12.43;;;3.10;;
6436;SDS011;3251;53.550;9.918;2023-12-28T13:45:46;21.40;;;4.10;;
6436;SDS011;3251;53.550;9.918;2023-12-28T13:48:13;14.40;;;2.73;;
6436;SDS011;3251;53.550;9.918;2023-12-28T13:50:39;17.50;;;3.47;;
6436;SDS011;3251;53.550;9.918;2023-12-28T13:53:05;16.83;;;3.80;;
6436;SDS011;3251;53.550;9.918;2023-12-28T13:55:33;22.90;;;4.33;;
6436;SDS011;3251;53.550;9.918;2023-12-28T13:58:00;22.90;;;3.13;;
6436;SDS011;3251;53.550;9.918;2023-12-28T14:00:26;21.47;;;2.70;;
6436;SDS011;3251;53.550;9.918;2023-12-28T14:02:52;18.03;;;3.20;;
6436;SDS011;3251;53.550;9.918;2023-12-28T14:05:18;24.13;;;3.40;;
6436;SDS011;3251;53.550;9.918;2023-12-28T14:07:44;23.57;;;3.40;;
6436;SDS011;3251;53.550;9.918;2023-12-28T14:10:11;15.50;;;3.27;;
6436;SDS011;3251;53.550;9.918;2023-12-28T14:12:37;17.60;;;3.30;;
6436;SDS011;3251;53.550;9.918;2023-12-28T14:15:03;20.90;;;2.67;;
6436;SDS011;3251;53.550;9.918;2023-12-28T14:17:29;15.40;;;3.30;;
6436;SDS011;3251;53.550;9.918;2023-12-28T14:19:55;21.77;;;2.97;;
6436;SDS011;3251;53.550;9.918;2023-12-28T14:22:21;13.27;;;2.90;;
6436;SDS011;3251;53.550;9.918;2023-12-28T14:24:48;21.33;;;3.23;;
6436;SDS011;3251;53.550;9.918;2023-12-28T14:27:14;25.30;;;4.07;;
6436;SDS011;3251;53.550;9.918;2023-12-28T14:29:40;19.10;;;2.13;;
6436;SDS011;3251;53.550;9.918;2023-12-28T14:32:07;21.77;;;4.10;;
6436;SDS011;3251;53.550;9.918;2023-12-28T14:34:33;12.73;;;2.40;;
6436;SDS011;3251;53.550;9.918;2023-12-28T14:36:59;11.07;;;2.80;;
6436;SDS011;3251;53.550;9.918;2023-12-28T14:39:26;12.17;;;2.30;;
6436;SDS011;3251;53.550;9.918;2023-12-28T14:41:52;22.53;;;2.33;;
6436;SDS011;3251;53.550;9.918;2023-12-28T14:44:18;10.17;;;2.73;;
6436;SDS011;3251;53.550;9.918;2023-12-28T14:46:44;13.43;;;3.00;;
6436;SDS011;3251;53.550;9.918;2023-12-28T14:49:10;25.03;;;2.80;;
6436;SDS011;3251;53.550;9.918;2023-12-28T14:51:36;21.30;;;2.30;;
6436;SDS011;3251;53.550;9.918;2023-12-28T14:54:03;16.63;;;2.77;;
6436;SDS011;3251;53.550;9.918;2023-12-28T14:56:29;9.30;;;3.13;;
6436;SDS011;3251;53.550;9.918;2023-12-28T14:58:55;20.33;;;2.87;;
6436;SDS011;3251;53.550;9.918;2023-12-28T15:01:22;7.77;;;2.10;;
6436;SDS011;3251;53.550;9.918;2023-12-28T15:03:48;13.53;;;2.47;;
6436;SDS011;3251;53.550;9.918;2023-12-28T15:06:14;5.53;;;2.23;;
6436;SDS011;3251;53.550;9.918;2023-12-28T15:08:41;22.07;;;4.07;;
6436;SDS011;3251;53.550;9.918;2023-12-28T15:11:07;13.60;;;3.33;;
6436;SDS011;3251;53.550;9.918;2023-12-28T15:13:35;36.17;;;5.80;;
6436;SDS011;3251;53.550;9.918;2023-12-28T15:16:02;26.40;;;7.33;;
6436;SDS011;3251;53.550;9.918;2023-12-28T15:18:29;18.13;;;5.10;;